createdAt,value
2018-08-14T00:01:40.979Z,5.43
2018-08-14T00:04:17.044Z,3.60
2018-08-14T00:06:53.390Z,3.40
2018-08-14T00:09:29.148Z,3.40
2018-08-14T00:12:06.530Z,3.30
2018-08-14T00:14:42.387Z,3.60
2018-08-14T00:17:17.686Z,3.37
2018-08-14T00:19:55.359Z,4.63
2018-08-14T00:22:30.969Z,3.27
2018-08-14T00:25:08.875Z,3.53
2018-08-14T00:30:27.025Z,2.97
2018-08-14T00:33:02.471Z,3.03
2018-08-14T00:35:38.746Z,3.87
2018-08-14T00:38:14.690Z,2.90
2018-08-14T00:40:50.940Z,2.70
2018-08-14T00:43:26.898Z,2.77
2018-08-14T00:46:02.365Z,3.07
2018-08-14T00:48:40.872Z,2.80
2018-08-14T00:51:15.997Z,4.40
2018-08-14T00:53:51.835Z,3.00
2018-08-14T00:56:28.423Z,2.70
2018-08-14T00:59:04.991Z,2.93
2018-08-14T01:01:40.629Z,4.10
2018-08-14T01:04:15.781Z,5.27
2018-08-14T01:06:51.515Z,2.40
2018-08-14T01:09:28.091Z,3.43
2018-08-14T01:12:03.158Z,3.07
2018-08-14T01:14:39.488Z,2.70
2018-08-14T01:17:14.852Z,4.77
2018-08-14T01:19:52.192Z,2.20
2018-08-14T01:22:28.378Z,2.70
2018-08-14T01:25:04.131Z,2.07
2018-08-14T01:27:39.574Z,2.07
2018-08-14T01:30:21.779Z,3.43
2018-08-14T01:32:59.338Z,3.30
2018-08-14T01:35:37.282Z,1.90
2018-08-14T01:38:12.995Z,4.60
2018-08-14T01:40:48.806Z,2.27
2018-08-14T01:43:24.018Z,1.93
2018-08-14T01:45:59.463Z,2.30
2018-08-14T01:48:34.910Z,2.03
2018-08-14T01:51:10.844Z,2.20
2018-08-14T01:53:46.290Z,2.10
2018-08-14T01:56:23.694Z,2.10
2018-08-14T01:58:59.116Z,2.37
2018-08-14T02:01:37.940Z,1.80
2018-08-14T02:04:14.101Z,2.10
2018-08-14T02:06:51.073Z,2.00
2018-08-14T02:09:27.363Z,2.17
2018-08-14T02:12:03.927Z,2.07
2018-08-14T02:14:39.450Z,2.63
2018-08-14T02:17:14.994Z,2.00
2018-08-14T02:19:51.053Z,2.20
2018-08-14T02:22:27.014Z,2.03
2018-08-14T02:25:04.279Z,2.10
2018-08-14T02:27:39.817Z,2.10
2018-08-14T02:30:16.205Z,2.00
2018-08-14T02:32:52.986Z,1.87
2018-08-14T02:35:28.346Z,1.97
2018-08-14T02:38:06.311Z,2.07
2018-08-14T02:40:42.378Z,2.40
2018-08-14T02:43:18.012Z,1.87
2018-08-14T02:45:53.779Z,2.10
2018-08-14T02:48:31.782Z,2.67
2018-08-14T02:51:08.647Z,2.40
2018-08-14T02:53:44.003Z,2.13
2018-08-14T02:56:20.161Z,1.73
2018-08-14T02:58:56.012Z,1.83
2018-08-14T03:01:31.261Z,1.93
2018-08-14T03:04:07.406Z,4.93
2018-08-14T03:06:42.542Z,2.30
2018-08-14T03:09:18.250Z,1.80
2018-08-14T03:11:54.143Z,2.03
2018-08-14T03:14:29.793Z,2.50
2018-08-14T03:17:07.768Z,2.07
2018-08-14T03:19:43.422Z,2.00
2018-08-14T03:22:19.737Z,3.40
2018-08-14T03:24:55.961Z,2.07
2018-08-14T03:27:31.743Z,2.00
2018-08-14T03:30:08.286Z,2.33
2018-08-14T03:32:44.135Z,3.23
2018-08-14T03:35:20.311Z,2.23
2018-08-14T03:37:56.176Z,3.00
2018-08-14T03:40:33.048Z,2.10
2018-08-14T03:43:08.580Z,1.70
2018-08-14T03:45:44.546Z,2.07
2018-08-14T03:48:21.931Z,2.37
2018-08-14T03:50:57.920Z,2.63
2018-08-14T03:53:34.841Z,2.23
2018-08-14T03:56:10.499Z,2.87
2018-08-14T03:58:46.545Z,2.00
2018-08-14T04:01:22.106Z,2.10
2018-08-14T04:03:57.662Z,2.00
2018-08-14T04:06:34.935Z,2.10
2018-08-14T04:09:12.324Z,2.40
2018-08-14T04:11:49.422Z,3.43
2018-08-14T04:14:25.157Z,2.50
2018-08-14T04:17:00.628Z,1.73
2018-08-14T04:19:36.557Z,2.83
2018-08-14T04:22:11.987Z,2.30
2018-08-14T04:24:48.873Z,2.03
2018-08-14T04:27:25.018Z,3.20
2018-08-14T04:30:00.375Z,2.67
2018-08-14T04:32:36.938Z,3.70
2018-08-14T04:35:11.882Z,2.50
2018-08-14T04:37:49.271Z,2.73
2018-08-14T04:40:24.602Z,4.37
2018-08-14T04:43:00.748Z,2.00
2018-08-14T04:45:39.592Z,2.70
2018-08-14T04:48:16.382Z,2.00
2018-08-14T04:53:14.325Z,1.97
2018-08-14T04:55:51.638Z,2.87
2018-08-14T04:58:27.394Z,2.00
2018-08-14T05:01:03.659Z,2.23
2018-08-14T05:03:39.282Z,2.07
2018-08-14T05:06:14.547Z,1.67
2018-08-14T05:08:51.000Z,1.53
2018-08-14T05:11:26.941Z,1.90
2018-08-14T05:16:38.244Z,1.63
2018-08-14T05:19:13.525Z,2.77
2018-08-14T05:21:49.046Z,1.77
2018-08-14T05:24:24.982Z,1.80
2018-08-14T05:27:01.649Z,2.07
2018-08-14T05:29:36.794Z,2.43
2018-08-14T05:32:12.234Z,2.00
2018-08-14T05:34:50.035Z,1.90
2018-08-14T05:37:26.302Z,2.37
2018-08-14T05:40:02.170Z,1.90
2018-08-14T05:42:37.996Z,2.00
2018-08-14T05:45:16.421Z,1.67
2018-08-14T05:47:54.320Z,2.10
2018-08-14T05:50:30.941Z,3.23
2018-08-14T05:53:06.722Z,1.60
2018-08-14T05:55:41.674Z,2.57
2018-08-14T05:58:18.254Z,3.17
2018-08-14T06:00:54.029Z,3.33
2018-08-14T06:03:30.139Z,1.80
2018-08-14T06:06:07.311Z,2.37
2018-08-14T06:08:42.970Z,3.10
2018-08-14T06:11:20.908Z,3.17
2018-08-14T06:13:56.335Z,3.67
2018-08-14T06:16:35.059Z,5.50
2018-08-14T06:19:11.810Z,1.80
2018-08-14T06:21:49.114Z,1.93
2018-08-14T06:24:25.261Z,1.90
2018-08-14T06:27:01.826Z,1.90
2018-08-14T06:29:36.760Z,2.17
2018-08-14T06:32:11.677Z,2.07
2018-08-14T06:34:46.751Z,4.40
2018-08-14T06:37:22.574Z,2.63
2018-08-14T06:39:57.398Z,3.73
2018-08-14T06:42:34.099Z,2.10
2018-08-14T06:45:12.277Z,2.37
2018-08-14T06:47:49.462Z,2.30
2018-08-14T06:50:25.129Z,2.00
2018-08-14T06:53:00.668Z,1.93
2018-08-14T06:55:37.129Z,2.97
2018-08-14T07:00:36.237Z,2.07
2018-08-14T07:03:11.797Z,2.00
2018-08-14T07:05:48.645Z,1.80
2018-08-14T07:08:24.407Z,1.63
2018-08-14T07:10:59.959Z,1.50
2018-08-14T07:13:35.608Z,1.87
2018-08-14T07:16:11.454Z,1.60
2018-08-14T07:18:47.634Z,2.00
2018-08-14T07:21:23.273Z,2.93
2018-08-14T07:23:58.896Z,1.90
2018-08-14T07:26:36.409Z,1.93
2018-08-14T07:29:12.464Z,3.53
2018-08-14T07:31:48.537Z,1.70
2018-08-14T07:34:24.462Z,1.80
2018-08-14T07:37:01.866Z,2.10
2018-08-14T07:39:39.562Z,3.60
2018-08-14T07:42:15.711Z,2.30
2018-08-14T07:44:51.164Z,1.90
2018-08-14T07:47:26.910Z,3.37
2018-08-14T07:50:03.185Z,1.70
2018-08-14T07:52:48.732Z,2.63
2018-08-14T07:55:24.107Z,1.70
2018-08-14T07:58:00.095Z,1.60
2018-08-14T08:00:36.432Z,3.27
2018-08-14T08:03:11.550Z,1.57
2018-08-14T08:05:49.735Z,1.63
2018-08-14T08:08:26.319Z,1.77
2018-08-14T08:11:02.694Z,2.40
2018-08-14T08:13:40.386Z,1.57
2018-08-14T08:16:17.245Z,3.83
2018-08-14T08:18:52.919Z,4.67
2018-08-14T08:21:27.946Z,1.70
2018-08-14T08:24:07.830Z,2.83
2018-08-14T08:26:42.722Z,1.43
2018-08-14T08:29:19.797Z,2.20
2018-08-14T08:31:55.958Z,1.50
2018-08-14T08:34:33.279Z,1.47
2018-08-14T08:37:08.686Z,1.40
2018-08-14T08:39:45.144Z,2.40
2018-08-14T08:42:25.628Z,1.70
2018-08-14T08:45:06.547Z,1.60
2018-08-14T08:47:41.925Z,1.50
2018-08-14T08:50:20.444Z,2.80
2018-08-14T08:52:56.116Z,1.50
2018-08-14T08:55:31.416Z,1.40
2018-08-14T08:58:08.324Z,1.60
2018-08-14T09:00:43.835Z,1.90
2018-08-14T09:03:18.289Z,1.40
2018-08-14T09:05:52.661Z,1.50
2018-08-14T09:08:28.943Z,1.40
2018-08-14T09:11:08.789Z,1.30
2018-08-14T09:13:44.323Z,1.50
2018-08-14T09:16:21.709Z,1.50
2018-08-14T09:18:56.553Z,1.30
2018-08-14T09:21:34.139Z,1.60
2018-08-14T09:24:10.518Z,1.50
2018-08-14T09:26:48.329Z,2.40
2018-08-14T09:29:24.583Z,1.40
2018-08-14T09:32:00.738Z,2.93
2018-08-14T09:34:36.611Z,2.53
2018-08-14T09:37:11.722Z,1.10
2018-08-14T09:39:47.680Z,3.70
2018-08-14T09:42:23.947Z,3.30
2018-08-14T09:44:59.546Z,1.50
2018-08-14T09:47:38.125Z,2.07
2018-08-14T09:50:21.047Z,2.30
2018-08-14T09:52:56.992Z,1.87
2018-08-14T09:55:35.064Z,1.20
2018-08-14T09:58:11.859Z,1.60
2018-08-14T10:00:53.142Z,1.20
2018-08-14T10:03:37.704Z,2.23
2018-08-14T10:06:18.759Z,1.30
2018-08-14T10:08:55.912Z,1.20
2018-08-14T10:11:36.576Z,1.80
2018-08-14T10:14:11.745Z,1.37
2018-08-14T10:16:50.896Z,1.60
2018-08-14T10:19:26.854Z,1.40
2018-08-14T10:22:02.990Z,1.83
2018-08-14T10:24:39.172Z,2.00
2018-08-14T10:27:14.686Z,2.77
2018-08-14T10:29:51.681Z,1.60
2018-08-14T10:32:27.642Z,3.20
2018-08-14T10:35:06.573Z,2.20
2018-08-14T10:37:45.539Z,1.67
2018-08-14T10:40:27.165Z,1.30
2018-08-14T10:43:04.243Z,1.50
2018-08-14T10:45:39.705Z,1.60
2018-08-14T10:48:15.967Z,1.70
2018-08-14T10:50:52.637Z,1.40
2018-08-14T10:53:27.677Z,1.50
2018-08-14T10:56:04.639Z,3.33
2018-08-14T10:58:40.555Z,1.43
2018-08-14T11:01:18.086Z,1.27
2018-08-14T11:03:54.877Z,1.40
2018-08-14T11:06:32.874Z,1.40
2018-08-14T11:09:10.642Z,1.80
2018-08-14T11:11:54.889Z,2.10
2018-08-14T11:14:43.790Z,1.30
2018-08-14T11:17:31.129Z,1.70
2018-08-14T11:20:19.321Z,1.70
2018-08-14T11:22:56.514Z,1.63
2018-08-14T11:25:36.340Z,1.73
2018-08-14T11:28:12.327Z,1.73
2018-08-14T11:30:50.019Z,1.50
2018-08-14T11:33:26.598Z,1.63
2018-08-14T11:36:07.631Z,1.57
2018-08-14T11:38:43.612Z,1.40
2018-08-14T11:41:21.728Z,1.63
2018-08-14T11:46:41.828Z,1.60
2018-08-14T11:49:19.635Z,1.83
2018-08-14T11:52:11.518Z,1.63
2018-08-14T11:54:57.594Z,1.80
2018-08-14T11:57:36.093Z,1.80
2018-08-14T12:00:32.086Z,2.23
2018-08-14T12:03:10.789Z,2.00
2018-08-14T12:05:46.541Z,1.93
2018-08-14T12:08:22.171Z,1.60
2018-08-14T12:10:59.123Z,1.50
2018-08-14T12:13:36.983Z,1.60
2018-08-14T12:16:12.319Z,1.50
2018-08-14T12:18:54.043Z,2.10
2018-08-14T12:21:28.930Z,1.77
2018-08-14T12:24:06.937Z,1.50
2018-08-14T12:26:42.239Z,3.10
2018-08-14T12:29:18.539Z,1.60
2018-08-14T12:31:54.390Z,1.87
2018-08-14T12:34:30.778Z,1.80
2018-08-14T12:37:06.791Z,1.70
2018-08-14T12:39:44.618Z,2.03
2018-08-14T12:42:24.635Z,1.73
2018-08-14T12:45:04.710Z,1.77
2018-08-14T12:47:44.133Z,1.33
2018-08-14T12:50:24.286Z,1.80
2018-08-14T12:53:01.279Z,1.60
2018-08-14T12:55:39.498Z,6.33
2018-08-14T12:58:14.625Z,1.53
2018-08-14T13:00:50.981Z,2.20
2018-08-14T13:03:26.625Z,1.60
2018-08-14T13:06:04.461Z,1.57
2018-08-14T13:08:40.937Z,1.83
2018-08-14T13:11:17.455Z,1.80
2018-08-14T13:13:52.797Z,1.80
2018-08-14T13:16:27.730Z,1.40
2018-08-14T13:19:03.794Z,1.70
2018-08-14T13:21:39.456Z,1.87
2018-08-14T13:24:17.318Z,1.57
2018-08-14T13:26:52.876Z,1.87
2018-08-14T13:29:29.972Z,1.53
2018-08-14T13:32:06.436Z,2.43
2018-08-14T13:34:41.982Z,1.63
2018-08-14T13:37:18.650Z,1.57
2018-08-14T13:39:55.069Z,1.60
2018-08-14T13:42:31.438Z,2.27
2018-08-14T13:45:08.650Z,1.67
2018-08-14T13:47:45.831Z,1.43
2018-08-14T13:50:21.912Z,1.73
2018-08-14T13:52:57.327Z,1.70
2018-08-14T13:55:33.451Z,1.80
2018-08-14T13:58:09.567Z,1.57
2018-08-14T14:00:45.656Z,1.60
2018-08-14T14:03:21.570Z,1.50
2018-08-14T14:05:56.582Z,2.00
2018-08-14T14:08:34.300Z,2.50
2018-08-14T14:11:09.928Z,2.17
2018-08-14T14:13:45.407Z,1.67
2018-08-14T14:16:21.339Z,3.47
2018-08-14T14:18:57.089Z,3.27
2018-08-14T14:21:34.396Z,1.70
2018-08-14T14:24:10.222Z,1.97
2018-08-14T14:26:46.616Z,1.93
2018-08-14T14:29:23.990Z,1.70
2018-08-14T14:32:00.718Z,1.93
2018-08-14T14:34:36.726Z,2.10
2018-08-14T14:37:11.979Z,1.70
2018-08-14T14:39:48.106Z,1.97
2018-08-14T14:42:23.344Z,1.80
2018-08-14T14:44:58.690Z,1.60
2018-08-14T14:47:34.240Z,2.80
2018-08-14T14:50:12.666Z,2.13
2018-08-14T14:52:48.902Z,2.40
2018-08-14T14:55:24.560Z,1.80
2018-08-14T14:58:00.210Z,1.63
2018-08-14T15:00:36.773Z,1.80
2018-08-14T15:03:12.524Z,1.80
2018-08-14T15:05:48.993Z,2.43
2018-08-14T15:08:24.034Z,2.33
2018-08-14T15:10:59.895Z,1.80
2018-08-14T15:13:35.938Z,2.27
2018-08-14T15:16:11.273Z,2.00
2018-08-14T15:18:47.347Z,1.80
2018-08-14T15:21:23.072Z,1.70
2018-08-14T15:23:59.045Z,1.80
2018-08-14T15:26:34.990Z,1.60
2018-08-14T15:29:11.142Z,1.63
2018-08-14T15:31:50.475Z,1.43
2018-08-14T15:34:27.776Z,3.13
2018-08-14T15:37:07.206Z,1.70
2018-08-14T15:39:42.534Z,1.70
2018-08-14T15:42:19.209Z,1.80
2018-08-14T15:44:54.758Z,2.10
2018-08-14T15:47:32.255Z,1.70
2018-08-14T15:50:08.815Z,1.60
2018-08-14T15:52:44.361Z,1.57
2018-08-14T15:55:21.542Z,2.00
2018-08-14T15:57:57.316Z,1.70
2018-08-14T16:00:34.406Z,1.80
2018-08-14T16:03:10.443Z,1.80
2018-08-14T16:05:46.814Z,2.03
2018-08-14T16:08:23.162Z,4.83
2018-08-14T16:11:00.141Z,1.90
2018-08-14T16:13:36.821Z,2.03
2018-08-14T16:16:12.553Z,1.40
2018-08-14T16:18:48.425Z,1.80
2018-08-14T16:21:23.773Z,1.50
2018-08-14T16:23:59.526Z,1.67
2018-08-14T16:26:35.271Z,1.57
2018-08-14T16:29:10.798Z,1.50
2018-08-14T16:31:46.258Z,1.70
2018-08-14T16:34:23.844Z,1.70
2018-08-14T16:36:59.295Z,2.20
2018-08-14T16:39:35.750Z,1.60
2018-08-14T16:42:11.386Z,1.60
2018-08-14T16:44:49.406Z,1.60
2018-08-14T16:47:25.762Z,1.77
2018-08-14T16:50:03.769Z,2.13
2018-08-14T16:52:40.639Z,2.43
2018-08-14T16:55:17.315Z,1.40
2018-08-14T16:57:52.649Z,1.70
2018-08-14T17:00:33.740Z,1.50
2018-08-14T17:03:10.909Z,1.50
2018-08-14T17:05:46.858Z,2.23
2018-08-14T17:08:22.408Z,1.60
2018-08-14T17:10:58.481Z,1.60
2018-08-14T17:13:33.747Z,2.10
2018-08-14T17:16:10.026Z,1.70
2018-08-14T17:18:45.541Z,2.00
2018-08-14T17:21:19.030Z,1.67
2018-08-14T17:23:54.447Z,1.90
2018-08-14T17:26:29.102Z,1.70
2018-08-14T17:29:03.683Z,1.67
2018-08-14T17:31:38.651Z,1.80
2018-08-14T17:34:13.694Z,4.30
2018-08-14T17:36:48.799Z,1.70
2018-08-14T17:39:23.298Z,1.97
2018-08-14T17:41:58.762Z,2.07
2018-08-14T17:44:34.652Z,1.90
2018-08-14T17:47:09.616Z,4.10
2018-08-14T17:49:45.399Z,2.00
2018-08-14T17:52:21.024Z,2.00
2018-08-14T17:54:56.907Z,2.83
2018-08-14T17:57:31.743Z,1.80
2018-08-14T18:00:26.293Z,2.07
2018-08-14T18:03:06.352Z,2.03
2018-08-14T18:05:42.017Z,1.77
2018-08-14T18:08:18.756Z,1.90
2018-08-14T18:10:56.394Z,5.00
2018-08-14T18:13:34.285Z,10.17
2018-08-14T18:16:13.391Z,1.93
2018-08-14T18:18:49.262Z,2.57
2018-08-14T18:21:24.726Z,3.27
2018-08-14T18:24:01.629Z,2.83
2018-08-14T18:26:38.824Z,2.23
2018-08-14T18:29:14.650Z,2.60
2018-08-14T18:31:51.694Z,2.67
2018-08-14T18:34:28.607Z,2.17
2018-08-14T18:37:06.488Z,3.40
2018-08-14T18:39:42.584Z,2.60
2018-08-14T18:42:18.720Z,3.40
2018-08-14T18:44:56.015Z,2.37
2018-08-14T18:47:33.177Z,2.20
2018-08-14T18:50:12.608Z,2.43
2018-08-14T18:52:51.124Z,5.63
2018-08-14T18:55:27.090Z,8.33
2018-08-14T18:58:03.745Z,4.97
2018-08-14T19:00:38.880Z,2.50
2018-08-14T19:03:15.339Z,2.93
2018-08-14T19:05:50.328Z,2.83
2018-08-14T19:08:25.510Z,3.63
2018-08-14T19:11:01.678Z,2.63
2018-08-14T19:13:38.736Z,2.50
2018-08-14T19:16:14.099Z,2.23
2018-08-14T19:18:49.774Z,3.97
2018-08-14T19:21:25.373Z,2.50
2018-08-14T19:24:01.722Z,2.60
2018-08-14T19:26:36.705Z,3.00
2018-08-14T19:29:12.772Z,2.67
2018-08-14T19:31:47.526Z,2.53
2018-08-14T19:34:22.698Z,3.33
2018-08-14T19:36:57.462Z,2.80
2018-08-14T19:39:32.135Z,3.07
2018-08-14T19:42:07.859Z,2.60
2018-08-14T19:44:44.894Z,3.87
2018-08-14T19:47:21.468Z,2.63
2018-08-14T19:49:57.126Z,3.53
2018-08-14T19:52:31.918Z,3.43
2018-08-14T19:55:11.406Z,2.87
2018-08-14T19:57:47.816Z,2.97
2018-08-14T20:00:28.001Z,2.80
2018-08-14T20:03:03.470Z,3.07
2018-08-14T20:05:38.893Z,2.90
2018-08-14T20:08:14.703Z,2.77
2018-08-14T20:10:50.087Z,3.23
2018-08-14T20:13:25.313Z,2.87
2018-08-14T20:16:06.470Z,3.20
2018-08-14T20:18:42.651Z,3.10
2018-08-14T20:21:18.822Z,2.87
2018-08-14T20:23:55.433Z,4.30
2018-08-14T20:29:10.071Z,3.13
2018-08-14T20:31:45.834Z,7.00
2018-08-14T20:34:20.644Z,3.00
2018-08-14T20:36:56.093Z,3.43
2018-08-14T20:39:30.919Z,3.10
2018-08-14T20:42:07.473Z,3.40
2018-08-14T20:44:44.218Z,3.57
2018-08-14T20:47:19.486Z,3.77
2018-08-14T20:49:54.344Z,4.03
2018-08-14T20:52:29.576Z,3.90
2018-08-14T20:55:05.479Z,7.57
2018-08-14T20:57:42.089Z,3.73
2018-08-14T21:00:22.350Z,3.83
2018-08-14T21:02:56.971Z,3.60
2018-08-14T21:05:32.481Z,4.60
2018-08-14T21:08:07.238Z,6.23
2018-08-14T21:10:42.139Z,4.90
2018-08-14T21:13:17.097Z,4.00
2018-08-14T21:15:57.944Z,4.33
2018-08-14T21:18:32.603Z,4.10
2018-08-14T21:21:08.528Z,4.23
2018-08-14T21:23:44.111Z,4.10
2018-08-14T21:26:19.555Z,4.27
2018-08-14T21:28:54.453Z,4.70
2018-08-14T21:31:30.301Z,4.60
2018-08-14T21:34:04.841Z,4.83
2018-08-14T21:36:39.473Z,5.10
2018-08-14T21:39:14.284Z,4.67
2018-08-14T21:41:49.222Z,4.33
2018-08-14T21:44:24.512Z,4.37
2018-08-14T21:46:59.657Z,4.87
2018-08-14T21:49:34.335Z,4.97
2018-08-14T21:52:09.662Z,4.67
2018-08-14T21:54:45.116Z,4.50
2018-08-14T21:57:19.834Z,4.40
2018-08-14T21:59:55.092Z,4.90
2018-08-14T22:02:30.519Z,5.03
2018-08-14T22:05:06.178Z,4.30
2018-08-14T22:07:40.902Z,5.30
2018-08-14T22:10:18.801Z,5.07
2018-08-14T22:12:53.606Z,5.70
2018-08-14T22:15:28.186Z,6.23
2018-08-14T22:18:03.154Z,5.20
2018-08-14T22:20:39.861Z,5.37
2018-08-14T22:23:14.438Z,4.70
2018-08-14T22:25:49.894Z,4.87
2018-08-14T22:28:24.756Z,4.87
2018-08-14T22:30:59.539Z,5.07
2018-08-14T22:33:37.587Z,6.27
2018-08-14T22:36:12.465Z,4.80
2018-08-14T22:38:47.230Z,5.00
2018-08-14T22:41:22.955Z,5.27
2018-08-14T22:43:57.489Z,4.90
2018-08-14T22:46:33.162Z,4.33
2018-08-14T22:49:10.121Z,4.80
2018-08-14T22:51:45.660Z,4.77
2018-08-14T22:54:20.943Z,7.33
2018-08-14T22:56:57.179Z,5.10
2018-08-14T22:59:32.114Z,5.30
2018-08-14T23:02:06.934Z,5.17
2018-08-14T23:04:43.374Z,4.80
2018-08-14T23:07:18.235Z,4.73
2018-08-14T23:09:53.002Z,4.57
2018-08-14T23:12:27.877Z,4.50
2018-08-14T23:15:03.216Z,4.20
2018-08-14T23:17:38.135Z,4.00
2018-08-14T23:20:14.020Z,4.10
2018-08-14T23:22:49.638Z,4.47
2018-08-14T23:25:25.386Z,5.57
2018-08-14T23:28:00.212Z,4.70
2018-08-14T23:30:35.890Z,5.00
2018-08-14T23:33:10.598Z,4.53
2018-08-14T23:35:46.468Z,4.73
2018-08-14T23:38:22.708Z,6.83
2018-08-14T23:40:57.757Z,5.07
2018-08-14T23:43:32.352Z,4.27
2018-08-14T23:46:07.219Z,4.47
2018-08-14T23:48:42.796Z,4.30
2018-08-14T23:51:17.941Z,4.40
2018-08-14T23:53:52.915Z,4.70
2018-08-14T23:56:28.229Z,4.30
2018-08-14T23:59:04.610Z,4.53
